Time;durP1;ratioP1;P1;durP2;ratioP2;P2;SDS_P1;SDS_P2;PMS_P1;PMS_P2;Temp;Humidity;BMP_temperature;BMP_pressure;BME280_temperature;BME280_humidity;BME280_pressure;Samples;Min_cycle;Max_cycle;Signal;HPM_P1;HPM_P2
2022/12/13 00:01:29;;;;;;;6.30;5.67;;;2.20;99.90;;;;;;4962376;28;20030;-79
2022/12/13 00:03:56;;;;;;;6.57;5.83;;;2.20;99.90;;;;;;4965579;28;20405;-79
2022/12/13 00:06:24;;;;;;;6.97;6.27;;;2.20;99.90;;;;;;4961892;28;20034;-79
2022/12/13 00:08:49;;;;;;;6.67;5.67;;;2.30;99.90;;;;;;4965322;28;20848;-79
2022/12/13 00:11:15;;;;;;;5.93;5.33;;;2.30;99.90;;;;;;4965623;28;20103;-79
2022/12/13 00:13:41;;;;;;;5.30;4.90;;;2.30;99.90;;;;;;4963654;28;20057;-79
2022/12/13 00:16:12;;;;;;;6.10;5.10;;;2.40;99.90;;;;;;4962028;28;20023;-79
2022/12/13 00:18:38;;;;;;;6.13;4.77;;;2.40;99.90;;;;;;4961935;28;20165;-79
2022/12/13 00:21:06;;;;;;;6.63;5.67;;;2.40;99.90;;;;;;4961713;28;20086;-79
2022/12/13 00:23:32;;;;;;;6.20;5.60;;;2.40;99.90;;;;;;4965339;28;20074;-79
2022/12/13 00:26:05;;;;;;;5.83;5.23;;;2.40;99.90;;;;;;4963853;28;20034;-79
2022/12/13 00:28:31;;;;;;;4.77;4.37;;;2.40;99.90;;;;;;4961919;28;20509;-79
2022/12/13 00:30:58;;;;;;;5.60;5.00;;;2.40;99.90;;;;;;4965126;28;20253;-79
2022/12/13 00:33:24;;;;;;;5.60;4.90;;;2.50;99.90;;;;;;4961601;28;20035;-79
2022/12/13 00:35:50;;;;;;;5.17;4.77;;;2.50;99.90;;;;;;4963591;28;20031;-79
2022/12/13 00:38:15;;;;;;;6.50;5.00;;;2.40;99.90;;;;;;4961634;28;20034;-79
2022/12/13 00:40:41;;;;;;;5.10;4.30;;;2.50;99.90;;;;;;4965149;28;20023;-79
2022/12/13 00:43:07;;;;;;;4.77;4.37;;;2.50;99.90;;;;;;4964494;28;20062;-79
2022/12/13 00:45:33;;;;;;;5.47;4.50;;;2.50;99.90;;;;;;4962300;28;20031;-79
2022/12/13 00:47:59;;;;;;;5.53;4.73;;;2.50;99.90;;;;;;4962697;28;20549;-79
2022/12/13 00:50:24;;;;;;;4.53;4.13;;;2.50;99.90;;;;;;4962612;28;20030;-79
2022/12/13 00:52:50;;;;;;;5.23;4.40;;;2.60;99.90;;;;;;4964858;28;20102;-79
2022/12/13 00:55:16;;;;;;;4.70;4.30;;;2.60;99.90;;;;;;4969464;28;20042;-79
2022/12/13 00:57:42;;;;;;;4.23;3.87;;;2.60;99.90;;;;;;4962665;28;20166;-79
2022/12/13 01:00:08;;;;;;;4.03;3.73;;;2.60;99.90;;;;;;4963288;28;20105;-79
2022/12/13 01:02:34;;;;;;;5.43;4.80;;;2.70;99.90;;;;;;4962423;28;20501;-79
2022/12/13 01:05:00;;;;;;;4.20;3.80;;;2.60;99.90;;;;;;4963768;28;20456;-79
2022/12/13 01:07:26;;;;;;;4.57;3.83;;;2.60;99.90;;;;;;4961928;28;20115;-79
2022/12/13 01:09:51;;;;;;;3.73;3.43;;;2.60;99.90;;;;;;4964094;28;20429;-79
2022/12/13 01:12:17;;;;;;;4.03;3.73;;;2.60;99.90;;;;;;4961703;28;20031;-79
2022/12/13 01:14:43;;;;;;;4.87;4.47;;;2.60;99.90;;;;;;4962697;28;20051;-79
2022/12/13 01:17:09;;;;;;;4.10;3.70;;;2.70;99.90;;;;;;4963744;28;20557;-79
2022/12/13 01:19:34;;;;;;;4.20;3.90;;;2.70;99.90;;;;;;4959740;28;20386;-79
2022/12/13 01:22:03;;;;;;;4.90;3.53;;;2.70;99.90;;;;;;4963252;28;20078;-79
2022/12/13 01:24:30;;;;;;;3.83;3.53;;;2.70;99.90;;;;;;4958252;28;20037;-79
2022/12/13 01:26:56;;;;;;;3.83;3.43;;;2.80;99.90;;;;;;4961078;28;20043;-79
2022/12/13 01:29:23;;;;;;;3.80;3.50;;;2.80;99.90;;;;;;4960911;28;20110;-79
2022/12/13 01:31:49;;;;;;;12.50;8.30;;;2.80;99.90;;;;;;4964384;28;20089;-79
2022/12/13 01:34:17;;;;;;;17.70;12.60;;;2.90;99.90;;;;;;4960161;28;20032;-79
2022/12/13 01:36:45;;;;;;;17.03;12.17;;;2.70;99.90;;;;;;4964199;28;20476;-79
2022/12/13 01:39:12;;;;;;;17.27;12.30;;;2.70;99.90;;;;;;4959950;28;20023;-79
2022/12/13 01:41:39;;;;;;;18.00;12.47;;;2.70;99.90;;;;;;4964181;28;20591;-79
2022/12/13 01:44:25;;;;;;;13.80;11.33;;;2.60;99.90;;;;;;4960006;28;20031;-79
2022/12/13 01:46:51;;;;;;;6.73;5.40;;;2.60;99.90;;;;;;4962192;28;20038;-79
2022/12/13 01:49:17;;;;;;;4.10;3.70;;;2.70;99.90;;;;;;4966121;28;20408;-79
2022/12/13 01:51:51;;;;;;;4.27;3.87;;;2.70;99.90;;;;;;4964556;28;20068;-79
2022/12/13 01:54:22;;;;;;;3.87;3.57;;;2.70;99.90;;;;;;4963339;28;20037;-79
2022/12/13 01:56:53;;;;;;;4.20;3.83;;;2.70;99.90;;;;;;4967009;28;20397;-79
2022/12/13 01:59:20;;;;;;;4.37;3.97;;;2.80;99.90;;;;;;4964839;28;20063;-78
2022/12/13 02:01:48;;;;;;;4.17;3.87;;;2.70;99.90;;;;;;4965990;28;20476;-78
2022/12/13 02:04:22;;;;;;;4.73;3.80;;;2.70;99.90;;;;;;4964778;28;20525;-78
2022/12/13 02:06:49;;;;;;;4.37;3.97;;;2.70;99.90;;;;;;4970316;28;20493;-78
2022/12/13 02:09:15;;;;;;;4.13;3.77;;;2.80;99.90;;;;;;4964363;28;20106;-79
2022/12/13 02:11:43;;;;;;;4.13;3.73;;;2.80;99.90;;;;;;4967641;28;20110;-78
2022/12/13 02:14:09;;;;;;;4.30;3.53;;;2.90;99.90;;;;;;4963920;28;20070;-79
2022/12/13 02:16:51;;;;;;;3.23;3.00;;;2.90;99.90;;;;;;4963788;28;20062;-78
2022/12/13 02:19:17;;;;;;;;;;;3.00;99.90;;;;;;4966049;28;20026;-79
2022/12/13 02:22:01;;;;;;;3.30;3.10;;;3.00;99.90;;;;;;4966227;28;19906;-79
2022/12/13 02:24:42;;;;;;;4.07;3.77;;;3.00;99.90;;;;;;4971036;28;20030;-78
2022/12/13 02:27:29;;;;;;;3.57;3.27;;;3.00;99.90;;;;;;4965843;28;20038;-79
2022/12/13 02:30:40;;;;;;;3.60;3.30;;;3.00;99.90;;;;;;4963727;28;20031;-78
2022/12/13 02:33:29;;;;;;;3.80;3.50;;;3.00;99.90;;;;;;4924370;28;20127;-78
2022/12/13 02:36:07;;;;;;;3.60;3.30;;;3.00;99.90;;;;;;4952800;28;20584;-79
2022/12/13 02:38:41;;;;;;;3.90;3.60;;;3.10;99.90;;;;;;4965249;28;20049;-78
2022/12/13 02:41:35;;;;;;;3.23;3.03;;;3.10;99.90;;;;;;4966690;28;20440;-78
2022/12/13 02:44:26;;;;;;;3.47;3.23;;;3.20;99.90;;;;;;4959858;28;20137;-78
2022/12/13 02:46:57;;;;;;;4.23;3.67;;;3.20;99.90;;;;;;4965295;28;20058;-79
2022/12/13 02:49:27;;;;;;;6.67;5.93;;;3.30;99.90;;;;;;4964991;28;20023;-78
2022/12/13 02:51:54;;;;;;;13.37;9.60;;;3.10;99.90;;;;;;4964644;28;20031;-79
2022/12/13 02:54:19;;;;;;;12.83;10.13;;;3.00;99.90;;;;;;4961582;28;20397;-79
2022/12/13 02:57:03;;;;;;;14.40;10.40;;;2.90;99.90;;;;;;4965394;28;20028;-78
2022/12/13 02:59:39;;;;;;;18.90;12.40;;;2.90;99.90;;;;;;4962043;28;20075;-79
2022/12/13 03:02:28;;;;;;;17.40;12.90;;;2.90;99.90;;;;;;4965463;28;20073;-79
2022/12/13 03:08:10;;;;;;;16.80;12.57;;;2.80;99.90;;;;;;4965274;28;20042;-78
2022/12/13 03:11:07;;;;;;;20.23;14.37;;;2.70;99.90;;;;;;4963861;28;20031;-79
2022/12/13 03:13:51;;;;;;;15.73;11.30;;;2.70;99.90;;;;;;4965594;28;20069;-79
2022/12/13 03:16:26;;;;;;;17.70;11.90;;;2.70;99.90;;;;;;4964134;28;20031;-78
2022/12/13 03:18:57;;;;;;;17.67;11.53;;;2.70;99.90;;;;;;4964298;28;20031;-78
2022/12/13 03:21:22;;;;;;;16.57;12.57;;;2.70;99.90;;;;;;4964226;28;20034;-78
2022/12/13 03:23:48;;;;;;;15.23;12.00;;;2.70;99.90;;;;;;4965287;28;20039;-78
2022/12/13 03:26:18;;;;;;;16.13;11.93;;;2.60;99.90;;;;;;4964310;28;20042;-78
2022/12/13 03:28:44;;;;;;;18.57;12.57;;;2.70;99.90;;;;;;4965087;28;20058;-78
2022/12/13 03:31:10;;;;;;;14.80;11.57;;;2.60;99.90;;;;;;4962935;28;20480;-79
2022/12/13 03:33:37;;;;;;;17.10;11.70;;;2.70;99.90;;;;;;4964466;28;20528;-78
2022/12/13 03:36:05;;;;;;;16.63;11.67;;;2.70;99.90;;;;;;4962931;28;20385;-78
2022/12/13 03:38:31;;;;;;;14.90;11.37;;;2.70;99.90;;;;;;4964503;28;20135;-78
2022/12/13 03:41:00;;;;;;;14.13;10.87;;;2.70;99.90;;;;;;4964453;28;20034;-79
2022/12/13 03:43:27;;;;;;;14.87;10.60;;;2.80;99.90;;;;;;4964385;28;20038;-78
2022/12/13 03:45:53;;;;;;;17.60;11.77;;;2.80;99.90;;;;;;4964055;28;20034;-79
2022/12/13 03:48:20;;;;;;;13.67;10.57;;;2.70;99.90;;;;;;4961054;28;20535;-78
2022/12/13 03:50:46;;;;;;;15.30;11.13;;;2.80;99.90;;;;;;4964190;28;20462;-78
2022/12/13 03:53:11;;;;;;;15.17;10.73;;;2.80;99.90;;;;;;4961313;28;20110;-78
2022/12/13 03:55:37;;;;;;;15.80;11.07;;;2.90;99.90;;;;;;4963433;28;20027;-78
2022/12/13 03:58:03;;;;;;;12.97;10.70;;;2.90;99.90;;;;;;4965832;28;20505;-78
2022/12/13 04:00:28;;;;;;;12.90;10.43;;;2.90;99.90;;;;;;4965067;28;20015;-78
2022/12/13 04:02:54;;;;;;;15.37;10.70;;;2.90;99.90;;;;;;4962621;28;20464;-78
2022/12/13 04:05:20;;;;;;;16.30;11.30;;;2.90;99.90;;;;;;4964157;28;20026;-78
2022/12/13 04:07:47;;;;;;;24.23;14.57;;;2.90;99.90;;;;;;4962108;28;20065;-78
2022/12/13 04:10:13;;;;;;;21.60;14.13;;;2.80;99.90;;;;;;4965983;28;20031;-78
2022/12/13 04:15:23;;;;;;;20.90;13.37;;;2.90;99.90;;;;;;4965895;28;20094;-78
2022/12/13 04:17:48;;;;;;;20.53;13.43;;;2.90;99.90;;;;;;4963538;28;20031;-78
2022/12/13 04:20:14;;;;;;;20.27;13.20;;;2.90;99.90;;;;;;4964022;28;20056;-78
2022/12/13 04:22:40;;;;;;;20.90;12.80;;;2.90;99.90;;;;;;4962693;28;20062;-78
2022/12/13 04:25:06;;;;;;;15.70;11.90;;;2.80;99.90;;;;;;4966687;28;20054;-78
2022/12/13 04:27:32;;;;;;;18.77;11.43;;;2.80;99.90;;;;;;4961724;28;20027;-78
2022/12/13 04:29:58;;;;;;;14.60;10.70;;;2.80;99.90;;;;;;4962139;28;20027;-79
2022/12/13 04:32:24;;;;;;;16.57;11.57;;;2.80;99.90;;;;;;4964892;28;20064;-78
2022/12/13 04:34:49;;;;;;;14.93;10.57;;;2.80;99.90;;;;;;4960475;28;20027;-78
2022/12/13 04:37:15;;;;;;;14.57;11.10;;;2.90;99.90;;;;;;4965111;28;20027;-78
2022/12/13 04:39:41;;;;;;;16.77;12.60;;;2.90;99.90;;;;;;4961723;28;20027;-79
2022/12/13 04:42:07;;;;;;;22.67;14.83;;;2.90;99.90;;;;;;4964900;28;20050;-78
2022/12/13 04:44:32;;;;;;;17.90;13.33;;;2.90;99.90;;;;;;4961797;28;20489;-79
2022/12/13 04:46:58;;;;;;;15.67;11.70;;;3.00;99.90;;;;;;4965363;28;20110;-78
2022/12/13 04:49:24;;;;;;;14.63;11.17;;;3.00;99.90;;;;;;4964136;28;20030;-78
2022/12/13 04:51:49;;;;;;;14.53;10.70;;;3.00;99.90;;;;;;4962606;28;20548;-78
2022/12/13 04:54:15;;;;;;;16.40;10.73;;;3.00;99.90;;;;;;4961185;28;20274;-78
2022/12/13 04:56:41;;;;;;;14.00;9.73;;;3.00;99.90;;;;;;4963303;28;20025;-78
2022/12/13 04:59:06;;;;;;;12.33;9.97;;;3.00;99.90;;;;;;4963030;28;20081;-78
2022/12/13 05:01:33;;;;;;;13.63;9.30;;;3.00;99.90;;;;;;4961347;28;20031;-78
2022/12/13 05:04:00;;;;;;;11.70;9.50;;;3.00;99.90;;;;;;4963600;28;20031;-78
2022/12/13 05:06:26;;;;;;;13.50;10.60;;;2.90;99.90;;;;;;4962535;28;20035;-78
2022/12/13 05:08:52;;;;;;;13.07;10.50;;;3.00;99.90;;;;;;4963784;28;20031;-78
2022/12/13 05:11:17;;;;;;;15.53;11.27;;;2.90;99.90;;;;;;4963722;28;20034;-78
2022/12/13 05:13:43;;;;;;;16.20;11.53;;;2.90;99.90;;;;;;4961367;28;20461;-78
2022/12/13 05:16:09;;;;;;;14.23;11.23;;;2.90;99.90;;;;;;4964155;28;20019;-78
2022/12/13 05:18:36;;;;;;;15.67;11.53;;;2.90;99.90;;;;;;4961402;28;20027;-78
2022/12/13 05:21:03;;;;;;;15.37;11.90;;;2.90;99.90;;;;;;4960716;28;20031;-78
2022/12/13 05:23:29;;;;;;;17.70;11.53;;;2.90;99.90;;;;;;4964326;28;20035;-78
2022/12/13 05:25:56;;;;;;;15.67;11.20;;;2.90;99.90;;;;;;4968594;28;20027;-78
2022/12/13 05:28:25;;;;;;;15.00;11.47;;;2.90;99.90;;;;;;4968534;28;20175;-78
2022/12/13 05:30:51;;;;;;;17.53;11.43;;;2.80;99.90;;;;;;4964761;28;20424;-78
2022/12/13 05:33:17;;;;;;;15.10;11.67;;;2.80;99.90;;;;;;4964945;28;20028;-78
2022/12/13 05:35:43;;;;;;;12.90;10.73;;;2.80;99.90;;;;;;4968229;28;20042;-78
2022/12/13 05:38:08;;;;;;;13.47;10.40;;;2.80;99.90;;;;;;4968525;28;20023;-78
2022/12/13 05:40:34;;;;;;;13.03;10.23;;;2.80;99.90;;;;;;4963270;28;20548;-78
2022/12/13 05:43:00;;;;;;;13.00;10.03;;;2.80;99.90;;;;;;4965391;28;20024;-78
2022/12/13 05:45:26;;;;;;;13.97;10.57;;;2.80;99.90;;;;;;4967012;28;20445;-78
2022/12/13 05:47:52;;;;;;;12.87;9.97;;;2.80;99.90;;;;;;4973654;28;20516;-78
2022/12/13 05:50:18;;;;;;;13.87;9.67;;;2.90;99.90;;;;;;4973294;28;20019;-78
2022/12/13 05:52:44;;;;;;;11.50;9.70;;;2.90;99.90;;;;;;4973508;28;20477;-78
2022/12/13 05:55:10;;;;;;;11.53;9.47;;;2.90;99.90;;;;;;4974635;28;20037;-78
2022/12/13 05:57:37;;;;;;;11.47;9.40;;;3.00;99.90;;;;;;4974581;28;20544;-78
2022/12/13 06:00:08;;;;;;;11.37;8.67;;;3.00;99.90;;;;;;4971063;28;20106;-78
2022/12/13 06:02:37;;;;;;;12.83;9.63;;;3.00;99.90;;;;;;4968365;28;20046;-78
2022/12/13 06:05:04;;;;;;;16.03;10.27;;;3.00;99.90;;;;;;4968703;28;20035;-78
2022/12/13 06:07:30;;;;;;;11.40;8.33;;;3.00;99.90;;;;;;4964400;28;20027;-78
2022/12/13 06:09:56;;;;;;;9.40;7.93;;;3.00;99.90;;;;;;4966776;28;20036;-78
2022/12/13 06:12:21;;;;;;;9.63;8.63;;;3.10;99.90;;;;;;4963539;28;20031;-78
2022/12/13 06:14:47;;;;;;;9.77;8.73;;;3.00;99.90;;;;;;4967162;28;20047;-78
2022/12/13 06:17:13;;;;;;;10.43;9.03;;;3.00;99.90;;;;;;4964505;28;20031;-78
2022/12/13 06:19:38;;;;;;;21.10;19.23;;;3.00;99.90;;;;;;4966853;28;20429;-78
2022/12/13 06:22:04;;;;;;;11.17;9.73;;;3.00;99.90;;;;;;4964661;28;20023;-78
2022/12/13 06:24:30;;;;;;;10.23;7.73;;;2.90;99.90;;;;;;4963516;28;20496;-78
2022/12/13 06:26:57;;;;;;;8.93;7.93;;;2.80;99.90;;;;;;4967350;28;20062;-78
2022/12/13 06:29:23;;;;;;;9.30;7.70;;;2.80;99.90;;;;;;4962196;28;20054;-78
2022/12/13 06:31:56;;;;;;;9.87;8.17;;;2.90;99.90;;;;;;4965872;28;20399;-78
2022/12/13 06:34:22;;;;;;;10.03;8.47;;;2.90;99.90;;;;;;4961215;28;20058;-78
2022/12/13 06:36:48;;;;;;;12.13;9.50;;;2.90;99.90;;;;;;4965151;28;20469;-78
2022/12/13 06:39:14;;;;;;;9.10;8.07;;;2.90;99.90;;;;;;4961882;28;20027;-78
2022/12/13 06:41:40;;;;;;;10.17;8.23;;;2.90;99.90;;;;;;4962105;28;20031;-78
2022/12/13 06:44:06;;;;;;;9.73;7.23;;;2.90;99.90;;;;;;4965388;28;20034;-78
2022/12/13 06:46:32;;;;;;;11.03;7.97;;;2.90;99.90;;;;;;4960439;28;20063;-78
2022/12/13 06:48:58;;;;;;;8.57;7.23;;;3.00;99.90;;;;;;4964340;28;20496;-78
2022/12/13 06:51:24;;;;;;;9.00;7.47;;;3.00;99.90;;;;;;4966882;28;20154;-78
2022/12/13 06:53:50;;;;;;;9.30;7.67;;;3.00;99.90;;;;;;4967650;28;20643;-78
2022/12/13 06:56:16;;;;;;;7.63;6.87;;;3.00;99.90;;;;;;4956788;29;20389;-78
2022/12/13 06:58:42;;;;;;;13.67;10.20;;;3.00;99.90;;;;;;4959539;28;20057;-78
2022/12/13 07:01:11;;;;;;;12.00;10.17;;;2.90;99.90;;;;;;4974838;28;20030;-78
2022/12/13 07:03:37;;;;;;;13.57;10.37;;;2.80;99.90;;;;;;4976286;28;20034;-78
2022/12/13 07:06:06;;;;;;;12.47;10.27;;;2.90;99.90;;;;;;4956642;28;20602;-78
2022/12/13 07:08:32;;;;;;;16.20;10.87;;;2.90;99.90;;;;;;4959347;28;20030;-77
2022/12/13 07:10:58;;;;;;;13.50;10.83;;;2.90;99.90;;;;;;4974656;28;20035;-78
2022/12/13 07:13:23;;;;;;;15.10;11.30;;;2.90;99.90;;;;;;4974495;28;20043;-78
2022/12/13 07:15:49;;;;;;;14.40;11.30;;;2.90;99.90;;;;;;4971750;28;20499;-78
2022/12/13 07:18:16;;;;;;;15.57;11.07;;;2.90;99.90;;;;;;4975934;28;20050;-78
2022/12/13 07:20:43;;;;;;;16.17;11.67;;;2.90;99.90;;;;;;4975867;28;20392;-77
2022/12/13 07:23:09;;;;;;;15.50;11.97;;;2.90;99.90;;;;;;4974217;28;20030;-78
2022/12/13 07:25:35;;;;;;;17.90;13.30;;;2.90;99.90;;;;;;4956546;28;20146;-78
2022/12/13 07:28:06;;;;;;;16.13;11.80;;;2.90;99.90;;;;;;4956408;28;20169;-78
2022/12/13 07:30:34;;;;;;;18.33;13.50;;;2.90;99.90;;;;;;4971171;28;20019;-77
2022/12/13 07:33:01;;;;;;;19.07;13.30;;;2.90;99.90;;;;;;4971010;28;20028;-78
2022/12/13 07:35:27;;;;;;;16.17;12.57;;;2.90;99.90;;;;;;4956180;28;20027;-78
2022/12/13 07:37:53;;;;;;;13.67;12.10;;;2.90;99.90;;;;;;4956298;28;20485;-78
2022/12/13 07:40:19;;;;;;;15.10;12.10;;;3.00;99.90;;;;;;4971151;28;20034;-78
2022/12/13 07:42:55;;;;;;;17.27;12.53;;;3.00;99.90;;;;;;4956098;29;20026;-78
2022/12/13 07:45:22;;;;;;;16.50;11.40;;;3.00;99.90;;;;;;4955012;28;20026;-78
2022/12/13 07:47:48;;;;;;;14.50;11.50;;;3.00;99.90;;;;;;4969845;28;20029;-77
2022/12/13 07:50:14;;;;;;;18.43;12.17;;;3.00;99.90;;;;;;4975328;28;20553;-77
2022/12/13 07:52:41;;;;;;;16.93;11.40;;;3.00;99.90;;;;;;4969612;28;20023;-77
2022/12/13 07:55:08;;;;;;;15.27;11.10;;;3.00;99.90;;;;;;4955856;29;20536;-77
2022/12/13 07:57:34;;;;;;;17.87;12.60;;;3.00;99.90;;;;;;4962361;28;20473;-77
2022/12/13 07:59:59;;;;;;;17.97;12.70;;;3.00;99.90;;;;;;4974947;28;20029;-78
2022/12/13 08:02:25;;;;;;;18.73;13.63;;;3.00;99.90;;;;;;4974905;28;20023;-77
2022/12/13 08:04:52;;;;;;;19.07;13.23;;;3.00;99.90;;;;;;4962543;28;20031;-77
2022/12/13 08:07:17;;;;;;;22.43;14.53;;;3.10;99.90;;;;;;4955747;29;20485;-78
2022/12/13 08:09:43;;;;;;;20.97;14.97;;;3.10;99.90;;;;;;4954483;29;20159;-77
2022/12/13 08:12:09;;;;;;;20.03;14.77;;;3.10;99.90;;;;;;4963554;28;20397;-77
2022/12/13 08:14:34;;;;;;;22.43;15.33;;;3.10;99.90;;;;;;4973374;28;20501;-77
2022/12/13 08:17:00;;;;;;;25.83;18.50;;;3.20;99.90;;;;;;4970165;28;20076;-77
2022/12/13 08:19:26;;;;;;;31.50;21.30;;;3.20;99.90;;;;;;4973328;28;20034;-77
2022/12/13 08:21:51;;;;;;;21.17;14.80;;;3.30;99.90;;;;;;4974841;28;20026;-77
2022/12/13 08:24:18;;;;;;;21.83;14.73;;;3.20;99.90;;;;;;4959700;28;20081;-77
2022/12/13 08:26:44;;;;;;;18.73;14.20;;;3.20;99.90;;;;;;4955418;29;20031;-77
2022/12/13 08:29:12;;;;;;;21.93;14.53;;;3.20;99.90;;;;;;4955308;29;20089;-77
2022/12/13 08:31:38;;;;;;;22.07;14.13;;;3.30;99.90;;;;;;4955310;29;20051;-77
2022/12/13 08:34:03;;;;;;;19.50;12.83;;;3.30;99.90;;;;;;4954038;29;20462;-77
2022/12/13 08:36:29;;;;;;;18.20;12.80;;;3.40;99.90;;;;;;4955179;29;20038;-78
2022/12/13 08:38:55;;;;;;;17.87;12.90;;;3.40;99.90;;;;;;4957232;28;20027;-77
2022/12/13 08:41:22;;;;;;;21.10;13.43;;;3.50;99.90;;;;;;4963905;28;20486;-77
2022/12/13 08:43:48;;;;;;;15.97;12.53;;;3.40;99.90;;;;;;4974339;28;20026;-77
2022/12/13 08:46:14;;;;;;;17.63;13.60;;;3.40;99.90;;;;;;4968709;28;20367;-77
2022/12/13 08:48:40;;;;;;;21.27;13.90;;;3.40;99.90;;;;;;4955043;29;20039;-77
2022/12/13 08:51:08;;;;;;;17.90;13.27;;;3.40;99.90;;;;;;4955007;29;20554;-77
2022/12/13 08:53:34;;;;;;;16.60;12.73;;;3.40;99.90;;;;;;4965280;28;20035;-77
2022/12/13 08:56:04;;;;;;;17.73;12.60;;;3.50;99.90;;;;;;4971602;28;20042;-77
2022/12/13 08:58:30;;;;;;;18.37;12.63;;;3.50;99.90;;;;;;4971393;28;20065;-77
2022/12/13 09:00:56;;;;;;;20.03;13.23;;;3.60;99.90;;;;;;4974039;28;20061;-77
2022/12/13 09:03:22;;;;;;;17.43;12.63;;;3.60;99.90;;;;;;4965049;28;20034;-78
2022/12/13 09:05:49;;;;;;;21.43;13.30;;;3.60;99.90;;;;;;4956568;28;20034;-77
2022/12/13 09:08:15;;;;;;;22.43;15.80;;;3.70;99.90;;;;;;4954902;29;20031;-78
2022/12/13 09:10:40;;;;;;;21.50;15.80;;;3.60;99.90;;;;;;4953591;29;20078;-78
2022/12/13 09:13:07;;;;;;;30.77;21.40;;;3.70;99.90;;;;;;4954635;29;20118;-78
2022/12/13 09:15:33;;;;;;;26.77;17.43;;;3.70;99.90;;;;;;4964724;28;20431;-78
2022/12/13 09:17:58;;;;;;;24.17;15.80;;;3.60;99.90;;;;;;4958464;28;20032;-78
2022/12/13 09:20:24;;;;;;;24.50;13.83;;;3.70;99.90;;;;;;4973443;28;20038;-77
2022/12/13 09:22:51;;;;;;;27.30;16.73;;;3.70;99.90;;;;;;4970253;28;20038;-78
2022/12/13 09:25:16;;;;;;;30.60;16.97;;;3.80;99.90;;;;;;4969569;28;20027;-78
2022/12/13 09:27:42;;;;;;;19.33;13.53;;;3.80;99.90;;;;;;4956818;28;20046;-78
2022/12/13 09:30:12;;;;;;;16.30;11.93;;;3.80;99.90;;;;;;4960621;28;20376;-78
2022/12/13 09:32:39;;;;;;;14.63;10.93;;;3.90;99.90;;;;;;4963785;28;20026;-78
2022/12/13 09:35:06;;;;;;;13.50;9.37;;;4.00;99.90;;;;;;4959798;28;20118;-78
2022/12/13 09:37:32;;;;;;;11.87;9.57;;;4.00;99.90;;;;;;4962265;28;20031;-74
2022/12/13 09:39:57;;;;;;;13.13;9.90;;;4.00;99.90;;;;;;4961605;28;20034;-75
2022/12/13 09:42:27;;;;;;;16.60;10.83;;;4.00;99.90;;;;;;4963033;28;20055;-74
2022/12/13 09:45:03;;;;;;;14.98;10.63;;;4.10;99.90;;;;;;4961725;28;20050;-75
2022/12/13 09:47:34;;;;;;;15.98;11.30;;;4.10;99.90;;;;;;4962487;28;20513;-75
2022/12/13 09:50:04;;;;;;;14.57;10.65;;;4.10;99.90;;;;;;4958938;28;20090;-74
2022/12/13 09:52:40;;;;;;;14.00;10.73;;;4.20;99.90;;;;;;4961981;28;20031;-74
2022/12/13 09:55:37;;;;;;;12.70;9.50;;;4.20;99.90;;;;;;4962031;28;20035;-74
2022/12/13 09:58:13;;;;;;;12.87;9.10;;;4.30;99.90;;;;;;4960562;28;20110;-74
2022/12/13 10:00:40;;;;;;;11.18;8.15;;;4.30;99.90;;;;;;4959949;28;20509;-74
2022/12/13 10:03:11;;;;;;;9.70;8.30;;;4.30;99.90;;;;;;4962644;28;20536;-74
2022/12/13 10:05:37;;;;;;;9.88;8.05;;;4.30;99.90;;;;;;4963152;28;20063;-74
2022/12/13 10:08:21;;;;;;;17.40;12.25;;;4.30;99.90;;;;;;4963501;28;20073;-74
2022/12/13 10:10:49;;;;;;;20.85;15.23;;;4.30;99.90;;;;;;4965503;28;20027;-74
2022/12/13 10:13:25;;;;;;;25.35;16.40;;;4.20;99.90;;;;;;4966020;28;20049;-74
2022/12/13 10:15:55;;;;;;;23.85;16.60;;;4.20;99.90;;;;;;4966361;28;20399;-74
2022/12/13 10:18:36;;;;;;;21.15;15.52;;;4.10;99.90;;;;;;4963426;28;20367;-74
2022/12/13 10:21:07;;;;;;;23.10;16.50;;;4.20;99.90;;;;;;4964771;28;20031;-74
2022/12/13 10:23:33;;;;;;;22.23;15.80;;;4.10;99.90;;;;;;4962513;28;20027;-74
2022/12/13 10:26:00;;;;;;;24.07;15.20;;;4.10;99.90;;;;;;4963960;28;20034;-74
2022/12/13 10:28:30;;;;;;;22.33;13.83;;;4.00;99.90;;;;;;4964715;28;20478;-74
2022/12/13 10:30:57;;;;;;;21.60;13.88;;;4.00;99.90;;;;;;4966192;28;20034;-74
2022/12/13 10:33:35;;;;;;;20.55;15.35;;;4.10;99.90;;;;;;4964643;28;20023;-74
2022/12/13 10:36:28;;;;;;;22.70;13.73;;;4.10;99.90;;;;;;4964742;28;20030;-74
2022/12/13 10:38:53;;;;;;;18.85;13.35;;;4.10;99.90;;;;;;4965639;28;20398;-74
2022/12/13 10:41:30;;;;;;;20.45;13.77;;;4.20;99.90;;;;;;4963234;28;20015;-74
2022/12/13 10:44:11;;;;;;;21.05;14.25;;;4.20;99.90;;;;;;4964422;28;20501;-74
2022/12/13 10:46:39;;;;;;;20.65;13.93;;;4.20;99.90;;;;;;4964054;28;20023;-74
2022/12/13 10:49:18;;;;;;;21.63;14.60;;;4.30;99.90;;;;;;4966088;28;20026;-74
2022/12/13 10:51:44;;;;;;;22.30;14.55;;;4.30;99.90;;;;;;4965840;28;20031;-74
2022/12/13 10:54:24;;;;;;;26.25;16.65;;;4.30;99.90;;;;;;4963283;28;20473;-74
2022/12/13 10:56:52;;;;;;;27.40;16.08;;;4.30;99.90;;;;;;4963411;28;20027;-74
2022/12/13 10:59:33;;;;;;;22.63;15.70;;;4.30;99.90;;;;;;4963233;28;20020;-74
2022/12/13 11:02:02;;;;;;;27.40;17.27;;;4.30;99.90;;;;;;4967015;28;20023;-74
2022/12/13 11:04:33;;;;;;;21.35;15.95;;;4.40;99.90;;;;;;4964933;28;20405;-75
2022/12/13 11:07:19;;;;;;;20.35;14.40;;;4.40;99.90;;;;;;4965661;28;20032;-74
2022/12/13 11:09:45;;;;;;;21.13;14.15;;;4.40;99.90;;;;;;4962908;28;20030;-75
2022/12/13 11:12:15;;;;;;;20.38;13.77;;;4.40;99.90;;;;;;4965851;28;20030;-74
2022/12/13 11:15:05;;;;;;;19.10;14.65;;;4.40;99.90;;;;;;4963737;28;20047;-74
2022/12/13 11:17:38;;;;;;;20.63;14.73;;;4.50;99.90;;;;;;4963229;28;20027;-75
2022/12/13 11:20:14;;;;;;;17.00;12.68;;;4.50;99.90;;;;;;4965493;28;20026;-74
2022/12/13 11:22:40;;;;;;;18.67;12.45;;;4.50;99.90;;;;;;4962907;28;20034;-75
2022/12/13 11:25:21;;;;;;;20.27;12.98;;;4.50;99.90;;;;;;4962561;28;20508;-75
2022/12/13 11:28:02;;;;;;;18.98;13.18;;;4.60;99.90;;;;;;4965970;28;20031;-75
2022/12/13 11:30:40;;;;;;;17.58;13.38;;;4.60;99.90;;;;;;4964121;28;20470;-74
2022/12/13 11:33:35;;;;;;;18.30;13.38;;;4.60;99.90;;;;;;4963103;28;20031;-75
2022/12/13 11:36:26;;;;;;;20.83;14.60;;;4.60;99.90;;;;;;4965287;28;20433;-75
2022/12/13 11:39:05;;;;;;;23.60;14.85;;;4.60;99.90;;;;;;4964583;28;20058;-75
2022/12/13 11:41:47;;;;;;;21.85;15.65;;;4.60;99.90;;;;;;4962741;28;20026;-75
2022/12/13 11:44:19;;;;;;;21.23;14.65;;;4.60;99.90;;;;;;4963989;28;20045;-75
2022/12/13 11:46:54;;;;;;;19.98;14.25;;;4.50;99.90;;;;;;4963769;28;20269;-75
2022/12/13 11:49:33;;;;;;;19.85;15.10;;;4.60;99.90;;;;;;4963962;28;20049;-75
2022/12/13 11:52:04;;;;;;;24.48;16.88;;;4.60;99.90;;;;;;4963078;28;20046;-75
2022/12/13 11:54:44;;;;;;;23.45;16.85;;;4.60;99.90;;;;;;4964480;28;20121;-75
2022/12/13 11:57:32;;;;;;;23.55;15.23;;;4.60;99.90;;;;;;4963621;28;20026;-75
2022/12/13 12:00:16;;;;;;;22.85;15.25;;;4.60;99.90;;;;;;4963180;28;20358;-75
2022/12/13 12:02:48;;;;;;;23.48;16.13;;;4.50;99.90;;;;;;4962097;28;20027;-75
2022/12/13 12:05:24;;;;;;;28.00;19.38;;;4.60;99.90;;;;;;4968436;28;20037;-75
2022/12/13 12:07:56;;;;;;;27.48;18.42;;;4.60;99.90;;;;;;4963530;28;20039;-75
2022/12/13 12:10:43;;;;;;;28.00;17.60;;;4.60;99.90;;;;;;4963641;28;20026;-75
2022/12/13 12:13:18;;;;;;;20.70;15.57;;;4.60;99.90;;;;;;4962670;28;20066;-75
2022/12/13 12:16:19;;;;;;;26.98;16.27;;;4.60;99.90;;;;;;4965394;28;20085;-75
2022/12/13 12:18:44;;;;;;;25.52;16.98;;;4.60;99.90;;;;;;4965776;28;20085;-75
2022/12/13 12:21:37;;;;;;;21.60;15.60;;;4.60;99.90;;;;;;4963942;28;20545;-75
2022/12/13 12:24:27;;;;;;;23.80;16.00;;;4.70;99.90;;;;;;4963055;28;20147;-75
2022/12/13 12:27:05;;;;;;;26.98;17.52;;;4.70;99.90;;;;;;4962061;28;20023;-75
2022/12/13 12:30:02;;;;;;;25.98;15.73;;;4.60;99.90;;;;;;4963187;28;20031;-75
2022/12/13 12:32:33;;;;;;;28.60;17.33;;;4.60;99.90;;;;;;4962913;28;20027;-75
2022/12/13 12:35:28;;;;;;;23.00;16.17;;;4.60;99.90;;;;;;4962759;28;20023;-75
2022/12/13 12:37:59;;;;;;;24.70;16.42;;;4.60;99.90;;;;;;4959690;28;20035;-75
2022/12/13 12:40:37;;;;;;;26.02;18.13;;;4.60;99.90;;;;;;4962571;28;21076;-75
2022/12/13 12:43:30;;;;;;;44.85;28.55;;;4.50;99.90;;;;;;4961541;28;20027;-75
2022/12/13 12:46:10;;;;;;;26.45;16.20;;;4.50;99.90;;;;;;4963316;28;20155;-75
2022/12/13 12:48:54;;;;;;;26.08;17.30;;;4.50;99.90;;;;;;4962489;28;20106;-75
2022/12/13 12:51:36;;;;;;;22.33;14.88;;;4.50;99.90;;;;;;4960334;28;20031;-75
2022/12/13 12:54:21;;;;;;;21.98;14.82;;;4.50;99.90;;;;;;4962525;28;20043;-75
2022/12/13 12:57:08;;;;;;;28.05;16.60;;;4.60;99.90;;;;;;4961261;28;20062;-75
2022/12/13 12:59:52;;;;;;;26.77;15.57;;;4.50;99.90;;;;;;4963555;28;20031;-75
2022/12/13 13:02:21;;;;;;;20.00;13.65;;;4.60;99.90;;;;;;4961937;28;20427;-75
2022/12/13 13:05:01;;;;;;;19.60;12.95;;;4.50;99.90;;;;;;4963859;28;20495;-75